createdAt,value
2019-03-25T00:11:15.688Z,66.5
2019-03-25T00:26:28.655Z,65.8
2019-03-25T00:41:41.673Z,61.5
2019-03-25T00:56:50.741Z,56.2
2019-03-25T01:12:07.582Z,53.5
2019-03-25T01:27:20.529Z,51.4
2019-03-25T01:42:33.295Z,50.8
2019-03-25T01:57:36.267Z,50
2019-03-25T02:12:58.689Z,49
2019-03-25T02:28:11.431Z,50.5
2019-03-25T02:43:24.118Z,52
2019-03-25T02:58:36.994Z,52.6
2019-03-25T03:13:48.131Z,52.8
2019-03-25T03:29:02.765Z,52.6
2019-03-25T03:44:14.682Z,51.5
2019-03-25T03:59:26.938Z,50.4
2019-03-25T04:14:32.656Z,50
2019-03-25T04:29:51.957Z,50
2019-03-25T04:45:04.650Z,51.5
2019-03-25T05:00:17.167Z,52.1
2019-03-25T05:15:29.741Z,52
2019-03-25T05:30:42.248Z,52.8
2019-03-25T05:45:54.738Z,51.1
2019-03-25T06:01:07.395Z,49.5
2019-03-25T06:16:19.809Z,48.2
2019-03-25T06:31:29.671Z,42.4
2019-03-25T06:46:45.235Z,39.2
2019-03-25T07:01:57.949Z,41
2019-03-25T07:17:10.738Z,41.1
2019-03-25T07:32:17.229Z,41.1
2019-03-25T07:47:36.336Z,52
2019-03-25T08:02:48.972Z,54.8
2019-03-25T08:18:01.583Z,54.9
2019-03-25T08:33:14.366Z,59.5
2019-03-25T08:48:26.646Z,66.8
2019-03-25T09:03:38.847Z,72
2019-03-25T09:18:51.394Z,73.2
2019-03-25T09:34:03.271Z,70.6
2019-03-25T09:49:11.639Z,66.7
2019-03-25T10:04:28.183Z,59.5
2019-03-25T10:19:41.199Z,53
2019-03-25T10:34:54.036Z,58.3
2019-03-25T10:49:56.864Z,66.1
2019-03-25T11:05:19.356Z,56.5
2019-03-25T11:20:32.707Z,44.5
2019-03-25T11:35:45.916Z,44
2019-03-25T11:50:59.356Z,42.4
2019-03-25T12:06:10.900Z,44.8
2019-03-25T12:21:26.366Z,40.8
2019-03-25T12:36:40.135Z,36.5
2019-03-25T12:51:54.010Z,35.3
2019-03-25T13:06:59.559Z,28.6
2019-03-25T13:22:23.234Z,27.3
2019-03-25T13:37:38.358Z,25.8
2019-03-25T13:52:52.702Z,29.5
2019-03-25T14:08:06.430Z,32.9
2019-03-25T14:23:17.121Z,44.8
2019-03-25T14:38:33.302Z,44.7
2019-03-25T14:53:46.665Z,46.8
2019-03-25T15:08:59.595Z,58.1
2019-03-25T15:24:04.029Z,64.9
2019-03-25T15:39:24.830Z,62.1
2019-03-25T15:54:37.679Z,66.6
2019-03-25T16:09:50.292Z,66.2
2019-03-25T16:25:03.227Z,62.5
2019-03-25T16:40:16.393Z,56.8
2019-03-25T16:55:29.194Z,61.6
2019-03-25T17:10:41.450Z,71.4
2019-03-25T17:25:53.724Z,71.5
2019-03-25T17:41:01.326Z,74.1
2019-03-25T17:56:17.477Z,75.2
2019-03-25T18:11:29.353Z,79.6
2019-03-25T18:26:41.345Z,79.4
2019-03-25T18:41:44.669Z,79.7
2019-03-25T18:57:05.464Z,80.2
2019-03-25T19:12:17.369Z,79.9
2019-03-25T19:27:29.534Z,80.2
2019-03-25T19:42:41.915Z,80.8
2019-03-25T19:57:53.487Z,80.3
2019-03-25T20:13:05.464Z,79.2
2019-03-25T20:28:17.617Z,79.2
2019-03-25T20:43:29.467Z,79.3
2019-03-25T20:58:37.282Z,78.4
2019-03-25T21:13:53.653Z,77.2
2019-03-25T21:29:05.486Z,75.2
2019-03-25T21:44:17.553Z,75.1
2019-03-25T21:59:20.503Z,74.6
2019-03-25T22:14:41.563Z,74.3
2019-03-25T22:17:32.491Z,77.2
2019-03-25T22:32:44.584Z,73.8
2019-03-25T22:47:56.568Z,74
2019-03-25T23:03:08.278Z,75.7
2019-03-25T23:18:20.499Z,76.2
2019-03-25T23:33:32.511Z,78
2019-03-25T23:48:44.224Z,78.5
